Time;durP1;ratioP1;P1;durP2;ratioP2;P2;SDS_P1;SDS_P2;PMS_P1;PMS_P2;Temp;Humidity;BMP_temperature;BMP_pressure;BME280_temperature;BME280_humidity;BME280_pressure;Samples;Min_cycle;Max_cycle;Signal;HPM_P1;HPM_P2
2022/06/23 00:01:16;;;;;;;3.45;2.25;;;;;;;;;;4939480;29;20035;-77
2022/06/23 00:03:42;;;;;;;3.78;2.15;;;;;;;;;;4938756;29;20098;-77
2022/06/23 00:06:23;;;;;;;5.35;2.35;;;;;;;;;;4938605;29;20110;-78
2022/06/23 00:08:48;;;;;;;7.30;2.35;;;;;;;;;;4938598;29;20471;-78
2022/06/23 00:11:21;;;;;;;6.55;2.63;;;;;;;;;;4956204;29;20051;-77
2022/06/23 00:13:46;;;;;;;3.85;2.42;;;;;;;;;;4922747;29;20047;-77
2022/06/23 00:16:25;;;;;;;4.70;2.38;;;;;;;;;;4939149;29;20423;-77
2022/06/23 00:18:51;;;;;;;3.58;2.10;;;;;;;;;;4954322;29;20030;-77
2022/06/23 00:21:26;;;;;;;5.35;2.35;;;;;;;;;;4954365;29;20031;-77
2022/06/23 00:23:55;;;;;;;2.50;1.98;;;;;;;;;;4938682;29;20023;-77
2022/06/23 00:26:26;;;;;;;5.75;2.63;;;;;;;;;;4946451;28;20101;-77
2022/06/23 00:29:03;;;;;;;5.53;2.10;;;;;;;;;;4973829;28;20471;-77
2022/06/23 00:31:38;;;;;;;2.80;2.10;;;;;;;;;;4973549;28;20142;-77
2022/06/23 00:34:27;;;;;;;6.53;2.50;;;;;;;;;;4973705;28;20023;-77
2022/06/23 00:37:17;;;;;;;3.78;2.15;;;;;;;;;;4973480;28;20085;-77
2022/06/23 00:39:51;;;;;;;3.78;2.40;;;;;;;;;;4966586;28;20395;-77
2022/06/23 00:42:25;;;;;;;7.03;3.15;;;;;;;;;;4973579;28;20077;-77
2022/06/23 00:45:02;;;;;;;4.88;2.28;;;;;;;;;;4974840;28;20030;-77
2022/06/23 00:47:46;;;;;;;3.75;2.40;;;;;;;;;;4973632;28;20197;-77
2022/06/23 00:50:17;;;;;;;4.10;2.35;;;;;;;;;;4973190;28;20117;-77
2022/06/23 00:52:47;;;;;;;4.70;2.40;;;;;;;;;;4973219;28;20123;-77
2022/06/23 00:55:36;;;;;;;5.72;2.53;;;;;;;;;;4973234;28;20486;-77
2022/06/23 00:58:05;;;;;;;3.50;2.30;;;;;;;;;;4968766;28;20117;-77
2022/06/23 01:00:39;;;;;;;5.30;2.60;;;;;;;;;;4973512;28;20033;-77
2022/06/23 01:03:43;;;;;;;9.00;2.47;;;;;;;;;;4973070;28;20045;-77
2022/06/23 01:06:19;;;;;;;4.30;2.55;;;;;;;;;;4975878;28;20042;-77
2022/06/23 01:09:15;;;;;;;3.78;2.28;;;;;;;;;;4973642;28;20538;-77
2022/06/23 01:11:46;;;;;;;4.85;2.60;;;;;;;;;;4974680;28;20045;-77
2022/06/23 01:14:40;;;;;;;5.57;2.80;;;;;;;;;;4973113;28;20459;-77
2022/06/23 01:17:15;;;;;;;3.03;2.45;;;;;;;;;;4972942;28;20154;-77
2022/06/23 01:19:59;;;;;;;5.00;2.60;;;;;;;;;;4973209;28;20027;-77
2022/06/23 01:22:28;;;;;;;5.30;2.40;;;;;;;;;;4973663;28;20034;-78
2022/06/23 01:24:57;;;;;;;4.35;2.33;;;;;;;;;;4974199;28;20391;-77
2022/06/23 01:27:43;;;;;;;3.85;2.60;;;;;;;;;;4972986;28;20074;-78
2022/06/23 01:30:10;;;;;;;5.90;2.60;;;;;;;;;;4953414;28;20038;-77
2022/06/23 01:32:47;;;;;;;5.88;2.63;;;;;;;;;;4972758;28;20106;-76
2022/06/23 01:35:16;;;;;;;3.90;2.20;;;;;;;;;;4974281;28;20364;-76
2022/06/23 01:37:47;;;;;;;4.47;2.28;;;;;;;;;;4972880;28;20027;-77
2022/06/23 01:40:32;;;;;;;3.65;2.38;;;;;;;;;;4972762;28;20035;-77
2022/06/23 01:43:20;;;;;;;5.03;2.72;;;;;;;;;;4972903;28;20109;-77
2022/06/23 01:45:56;;;;;;;4.70;2.63;;;;;;;;;;4973197;28;20076;-77
2022/06/23 01:51:34;;;;;;;4.20;2.55;;;;;;;;;;4973106;28;20029;-77
2022/06/23 01:54:14;;;;;;;5.03;2.83;;;;;;;;;;4973895;28;20026;-76
2022/06/23 01:57:04;;;;;;;6.22;2.53;;;;;;;;;;4972528;28;20026;-77
2022/06/23 01:59:36;;;;;;;3.55;2.10;;;;;;;;;;4945040;28;20478;-77
2022/06/23 02:02:11;;;;;;;5.57;2.23;;;;;;;;;;4972582;28;20089;-77
2022/06/23 02:05:00;;;;;;;6.28;2.58;;;;;;;;;;4972486;28;20033;-77
2022/06/23 02:07:31;;;;;;;6.65;2.38;;;;;;;;;;4972532;28;20027;-77
2022/06/23 02:10:09;;;;;;;2.40;2.20;;;;;;;;;;4972466;28;20065;-77
2022/06/23 02:12:53;;;;;;;4.22;2.40;;;;;;;;;;4972896;28;20027;-77
2022/06/23 02:15:27;;;;;;;;;;;;;;;;;;4973077;28;20031;-78
2022/06/23 02:17:56;;;;;;;;;;;;;;;;;;4974095;28;19910;-78
2022/06/23 02:20:32;;;;;;;3.33;2.63;;;;;;;;;;4977129;28;19910;-77
2022/06/23 02:23:12;;;;;;;5.05;2.72;;;;;;;;;;4976992;28;20110;-77
2022/06/23 02:25:43;;;;;;;6.70;3.00;;;;;;;;;;4975832;28;20034;-77
2022/06/23 02:28:37;;;;;;;2.95;2.58;;;;;;;;;;4975783;28;20082;-77
2022/06/23 02:31:18;;;;;;;4.50;2.72;;;;;;;;;;4968575;28;20118;-77
2022/06/23 02:33:59;;;;;;;3.45;2.60;;;;;;;;;;4975699;28;20106;-77
2022/06/23 02:36:38;;;;;;;3.53;2.25;;;;;;;;;;4975695;28;20081;-77
2022/06/23 02:39:17;;;;;;;5.32;2.63;;;;;;;;;;4976783;28;20023;-77
2022/06/23 02:41:50;;;;;;;5.43;2.40;;;;;;;;;;4975698;28;20031;-77
2022/06/23 02:44:18;;;;;;;5.23;2.57;;;;;;;;;;4975373;28;20030;-77
2022/06/23 02:47:11;;;;;;;5.22;2.90;;;;;;;;;;4977032;28;20019;-77
2022/06/23 02:50:05;;;;;;;2.50;2.30;;;;;;;;;;4975454;28;20022;-78
2022/06/23 02:52:42;;;;;;;3.85;2.58;;;;;;;;;;4975383;28;20185;-77
2022/06/23 02:55:41;;;;;;;5.28;2.95;;;;;;;;;;4976799;28;20030;-77
2022/06/23 02:58:18;;;;;;;3.70;2.67;;;;;;;;;;4976790;28;20023;-77
2022/06/23 03:00:56;;;;;;;6.00;2.75;;;;;;;;;;4976490;28;20027;-77
2022/06/23 03:03:33;;;;;;;5.68;3.17;;;;;;;;;;4976329;28;20576;-77
2022/06/23 03:06:07;;;;;;;5.15;2.45;;;;;;;;;;4975134;28;20043;-77
2022/06/23 03:09:03;;;;;;;5.32;2.78;;;;;;;;;;4975367;28;20109;-77
2022/06/23 03:11:51;;;;;;;4.18;2.58;;;;;;;;;;4974883;28;20447;-77
2022/06/23 03:14:40;;;;;;;5.50;2.78;;;;;;;;;;4975237;28;20026;-77
2022/06/23 03:17:24;;;;;;;3.25;2.33;;;;;;;;;;4974658;28;20542;-77
2022/06/23 03:20:00;;;;;;;;;;;;;;;;;;4975302;28;20031;-77
2022/06/23 03:22:34;;;;;;;4.50;2.63;;;;;;;;;;4974718;28;19916;-77
2022/06/23 03:25:02;;;;;;;;;;;;;;;;;;4975424;28;20026;-77
2022/06/23 03:27:33;;;;;;;2.58;1.92;;;;;;;;;;4990591;28;20327;-76
2022/06/23 03:30:04;;;;;;;2.97;2.50;;;;;;;;;;4977428;28;20061;-76
2022/06/23 03:32:34;;;;;;;5.38;2.60;;;;;;;;;;4977905;28;20181;-77
2022/06/23 03:35:15;;;;;;;5.43;2.38;;;;;;;;;;4995376;28;20026;-77
2022/06/23 03:37:59;;;;;;;5.28;2.53;;;;;;;;;;4977812;28;20158;-77
2022/06/23 03:43:31;;;;;;;5.60;2.83;;;;;;;;;;4980618;28;20037;-76
2022/06/23 03:46:00;;;;;;;4.00;2.65;;;;;;;;;;4977575;28;20479;-76
2022/06/23 03:48:53;;;;;;;4.80;2.63;;;;;;;;;;4994997;28;20030;-76
2022/06/23 03:51:21;;;;;;;4.50;2.35;;;;;;;;;;4973834;28;20053;-77
2022/06/23 03:54:06;;;;;;;6.05;2.80;;;;;;;;;;4995062;28;20026;-77
2022/06/23 03:56:45;;;;;;;5.45;2.60;;;;;;;;;;4977379;28;20026;-77
2022/06/23 03:59:16;;;;;;;5.10;2.80;;;;;;;;;;4977205;28;20030;-77
2022/06/23 04:01:48;;;;;;;4.70;2.80;;;;;;;;;;4995260;28;20022;-77
2022/06/23 04:04:25;;;;;;;5.63;2.65;;;;;;;;;;4977639;28;20026;-76
2022/06/23 04:06:52;;;;;;;3.38;2.55;;;;;;;;;;4977224;28;20023;-77
2022/06/23 04:09:22;;;;;;;5.20;3.00;;;;;;;;;;4994628;28;20042;-77
2022/06/23 04:11:57;;;;;;;3.28;2.60;;;;;;;;;;4977065;28;20137;-78
2022/06/23 04:14:29;;;;;;;7.35;3.58;;;;;;;;;;4994456;28;20026;-78
2022/06/23 04:17:16;;;;;;;6.97;3.80;;;;;;;;;;4977157;28;20054;-78
2022/06/23 04:19:45;;;;;;;4.78;3.20;;;;;;;;;;4994981;28;20026;-78
2022/06/23 04:22:16;;;;;;;7.03;3.28;;;;;;;;;;4976940;28;20119;-78
2022/06/23 04:24:44;;;;;;;6.78;3.08;;;;;;;;;;4976927;28;20073;-79
2022/06/23 04:27:22;;;;;;;15.38;3.58;;;;;;;;;;4973159;28;20078;-78
2022/06/23 04:29:51;;;;;;;12.75;4.25;;;;;;;;;;4973304;28;20058;-78
2022/06/23 04:32:22;;;;;;;12.55;4.32;;;;;;;;;;4973691;28;20027;-79
2022/06/23 04:34:58;;;;;;;12.85;4.05;;;;;;;;;;4973986;28;20033;-79
2022/06/23 04:37:50;;;;;;;7.13;3.47;;;;;;;;;;4973892;28;20022;-78
2022/06/23 04:40:22;;;;;;;11.68;3.80;;;;;;;;;;4973314;28;20447;-78
2022/06/23 04:42:53;;;;;;;5.07;2.88;;;;;;;;;;4974937;28;20031;-77
2022/06/23 04:45:29;;;;;;;9.65;3.38;;;;;;;;;;4974318;28;20031;-79
2022/06/23 04:47:55;;;;;;;7.18;3.00;;;;;;;;;;4974015;28;20030;-79
2022/06/23 04:50:37;;;;;;;6.38;2.50;;;;;;;;;;4973834;28;20121;-78
2022/06/23 04:53:02;;;;;;;10.27;2.83;;;;;;;;;;4973510;28;20034;-78
2022/06/23 04:55:30;;;;;;;6.65;3.08;;;;;;;;;;4975348;28;20111;-78
2022/06/23 04:58:03;;;;;;;5.97;2.88;;;;;;;;;;4973831;28;20034;-78
2022/06/23 05:00:28;;;;;;;18.17;4.40;;;;;;;;;;4973560;28;20483;-78
2022/06/23 05:02:57;;;;;;;10.48;3.75;;;;;;;;;;4973422;28;20062;-77
2022/06/23 05:05:29;;;;;;;7.95;3.45;;;;;;;;;;4973617;28;20027;-78
2022/06/23 05:08:08;;;;;;;10.05;3.70;;;;;;;;;;4975147;28;20031;-77
2022/06/23 05:10:51;;;;;;;7.72;3.10;;;;;;;;;;4974558;28;20026;-78
2022/06/23 05:13:26;;;;;;;6.57;3.08;;;;;;;;;;4974668;28;20026;-78
2022/06/23 05:16:05;;;;;;;9.82;3.60;;;;;;;;;;4975518;28;20142;-76
2022/06/23 05:18:33;;;;;;;9.63;3.10;;;;;;;;;;4973246;28;20102;-77
2022/06/23 05:21:04;;;;;;;8.10;3.40;;;;;;;;;;4973334;28;20030;-77
2022/06/23 05:23:39;;;;;;;11.98;3.83;;;;;;;;;;4973732;28;20395;-77
2022/06/23 05:26:24;;;;;;;9.07;3.28;;;;;;;;;;4974880;28;20025;-77
2022/06/23 05:28:57;;;;;;;9.75;3.45;;;;;;;;;;4976472;28;20506;-77
2022/06/23 05:31:26;;;;;;;9.00;3.33;;;;;;;;;;4976248;28;20030;-77
2022/06/23 05:33:53;;;;;;;6.47;2.97;;;;;;;;;;4976317;28;20023;-77
2022/06/23 05:36:24;;;;;;;6.90;3.30;;;;;;;;;;4978135;28;20036;-77
2022/06/23 05:38:58;;;;;;;5.22;3.00;;;;;;;;;;4976953;28;20027;-77
2022/06/23 05:41:33;;;;;;;11.55;3.05;;;;;;;;;;4976465;28;20085;-77
2022/06/23 05:43:58;;;;;;;12.80;2.97;;;;;;;;;;4976733;28;20045;-77
2022/06/23 05:46:26;;;;;;;5.22;2.65;;;;;;;;;;4976261;28;20030;-76
2022/06/23 05:49:00;;;;;;;8.02;3.03;;;;;;;;;;4976556;28;20546;-77
2022/06/23 05:51:55;;;;;;;6.72;3.00;;;;;;;;;;4977086;28;20030;-77
2022/06/23 05:54:28;;;;;;;8.75;3.00;;;;;;;;;;4979844;28;20037;-77
2022/06/23 05:57:23;;;;;;;6.00;2.67;;;;;;;;;;4997313;28;20030;-77
2022/06/23 06:00:14;;;;;;;8.18;2.70;;;;;;;;;;4997587;28;20495;-77
2022/06/23 06:02:51;;;;;;;6.70;2.90;;;;;;;;;;4979720;28;20034;-77
2022/06/23 06:05:29;;;;;;;6.07;2.75;;;;;;;;;;4979890;28;20093;-77
2022/06/23 06:07:55;;;;;;;6.03;2.60;;;;;;;;;;4980045;28;20033;-76
2022/06/23 06:10:23;;;;;;;5.28;2.33;;;;;;;;;;4996378;28;20069;-77
2022/06/23 06:12:50;;;;;;;5.60;2.65;;;;;;;;;;4996383;28;20030;-77
2022/06/23 06:15:22;;;;;;;4.30;2.50;;;;;;;;;;4995844;28;20485;-77
2022/06/23 06:17:49;;;;;;;4.57;2.33;;;;;;;;;;4979513;28;20486;-77
2022/06/23 06:20:15;;;;;;;4.72;2.42;;;;;;;;;;4980288;28;20399;-76
2022/06/23 06:23:05;;;;;;;4.35;2.10;;;;;;;;;;4963841;28;20034;-77
2022/06/23 06:25:39;;;;;;;6.00;2.40;;;;;;;;;;4997031;28;20073;-77
2022/06/23 06:28:16;;;;;;;4.00;2.30;;;;;;;;;;4979938;28;20538;-77
2022/06/23 06:30:45;;;;;;;6.10;2.30;;;;;;;;;;4979569;28;20030;-77
2022/06/23 06:33:26;;;;;;;3.13;2.20;;;;;;;;;;4979320;28;20474;-77
2022/06/23 06:35:53;;;;;;;6.43;2.17;;;;;;;;;;4979361;28;20078;-77
2022/06/23 06:38:20;;;;;;;2.97;2.13;;;;;;;;;;4979459;28;20041;-77
2022/06/23 06:40:48;;;;;;;4.13;2.53;;;;;;;;;;4979429;28;20093;-77
2022/06/23 06:43:20;;;;;;;3.88;1.90;;;;;;;;;;4995199;28;20026;-77
2022/06/23 06:45:45;;;;;;;3.67;2.15;;;;;;;;;;4979597;28;20053;-77
2022/06/23 06:48:19;;;;;;;2.90;2.10;;;;;;;;;;4980178;28;20463;-77
2022/06/23 06:50:47;;;;;;;3.83;2.35;;;;;;;;;;4980005;28;20023;-77
2022/06/23 06:53:32;;;;;;;3.10;2.10;;;;;;;;;;4995677;28;20023;-77
2022/06/23 06:56:04;;;;;;;3.17;2.00;;;;;;;;;;4996430;28;20386;-79
2022/06/23 06:58:46;;;;;;;3.50;2.00;;;;;;;;;;4962531;28;20030;-78
2022/06/23 07:01:21;;;;;;;2.33;1.80;;;;;;;;;;4978980;28;20038;-78
2022/06/23 07:03:49;;;;;;;3.60;2.17;;;;;;;;;;4978111;28;20073;-78
2022/06/23 07:06:37;;;;;;;5.03;2.03;;;;;;;;;;4978741;28;20077;-79
2022/06/23 07:09:21;;;;;;;3.78;2.13;;;;;;;;;;4995015;28;20449;-78
2022/06/23 07:12:04;;;;;;;3.40;1.85;;;;;;;;;;4978655;28;20053;-78
2022/06/23 07:14:45;;;;;;;5.57;1.92;;;;;;;;;;4978467;28;20402;-78
2022/06/23 07:17:34;;;;;;;7.20;1.92;;;;;;;;;;4978683;28;20022;-78
2022/06/23 07:20:14;;;;;;;4.25;2.20;;;;;;;;;;4978717;28;20109;-78
2022/06/23 07:23:32;;;;;;;3.30;2.10;;;;;;;;;;4978464;28;20390;-78
2022/06/23 07:26:11;;;;;;;5.28;1.77;;;;;;;;;;4959178;28;20123;-78
2022/06/23 07:28:46;;;;;;;9.65;1.80;;;;;;;;;;4978748;28;20054;-77
2022/06/23 07:31:19;;;;;;;3.25;2.03;;;;;;;;;;4996382;28;20041;-79
2022/06/23 07:33:48;;;;;;;3.13;1.92;;;;;;;;;;4978630;28;20062;-79
2022/06/23 07:36:18;;;;;;;4.15;1.98;;;;;;;;;;4978275;28;20024;-77
2022/06/23 07:38:47;;;;;;;3.17;1.80;;;;;;;;;;4996034;28;20030;-81
2022/06/23 07:41:20;;;;;;;3.72;1.88;;;;;;;;;;4996056;28;20122;-80
2022/06/23 07:43:59;;;;;;;4.70;2.22;;;;;;;;;;4978248;28;20392;-80
2022/06/23 07:46:25;;;;;;;3.60;2.10;;;;;;;;;;4978410;28;20022;-79
2022/06/23 07:48:51;;;;;;;2.53;1.92;;;;;;;;;;4995553;28;20037;-78
2022/06/23 07:51:17;;;;;;;3.17;2.00;;;;;;;;;;4978602;28;20038;-77
2022/06/23 07:53:51;;;;;;;2.55;1.70;;;;;;;;;;4978155;28;20033;-76
2022/06/23 07:56:20;;;;;;;2.05;1.77;;;;;;;;;;4977643;28;20501;-77
2022/06/23 07:58:49;;;;;;;4.60;1.98;;;;;;;;;;4978260;28;20058;-77
2022/06/23 08:01:24;;;;;;;3.92;2.15;;;;;;;;;;4977911;28;20022;-78
2022/06/23 08:03:59;;;;;;;2.17;1.70;;;;;;;;;;4977576;28;20030;-76
2022/06/23 08:06:25;;;;;;;3.13;1.60;;;;;;;;;;4977455;28;20505;-77
2022/06/23 08:08:55;;;;;;;5.00;1.95;;;;;;;;;;4977962;28;20041;-77
2022/06/23 08:14:11;;;;;;;2.22;1.55;;;;;;;;;;4995245;28;20041;-79
2022/06/23 08:16:49;;;;;;;9.40;2.10;;;;;;;;;;4978001;28;20494;-77
2022/06/23 08:19:24;;;;;;;3.88;2.03;;;;;;;;;;4979154;28;20026;-77
2022/06/23 08:21:53;;;;;;;1.92;1.77;;;;;;;;;;4977231;28;20471;-77
2022/06/23 08:24:23;;;;;;;1.98;1.60;;;;;;;;;;4977679;28;20116;-77
2022/06/23 08:26:54;;;;;;;2.85;1.90;;;;;;;;;;4977513;28;20054;-76
2022/06/23 08:29:24;;;;;;;3.97;1.90;;;;;;;;;;4977387;28;20038;-77
2022/06/23 08:31:50;;;;;;;4.22;2.13;;;;;;;;;;4995036;28;20053;-80
2022/06/23 08:34:15;;;;;;;7.78;2.10;;;;;;;;;;4977763;28;20030;-80
2022/06/23 08:36:46;;;;;;;5.50;2.03;;;;;;;;;;4977178;28;20041;-79
2022/06/23 08:39:37;;;;;;;4.50;2.55;;;;;;;;;;4977329;28;20029;-78
2022/06/23 08:42:31;;;;;;;6.50;2.40;;;;;;;;;;4960864;28;20121;-78
2022/06/23 08:45:15;;;;;;;7.00;2.70;;;;;;;;;;4964290;28;20042;-77
2022/06/23 08:47:58;;;;;;;7.00;2.78;;;;;;;;;;4994325;28;20029;-76
2022/06/23 08:50:30;;;;;;;6.57;3.10;;;;;;;;;;4994550;28;20130;-77
2022/06/23 08:53:16;;;;;;;12.93;3.05;;;;;;;;;;4976726;28;20505;-77
2022/06/23 08:55:51;;;;;;;7.78;2.63;;;;;;;;;;4994264;28;20117;-77
2022/06/23 08:58:19;;;;;;;4.22;2.50;;;;;;;;;;4977154;28;20018;-77
2022/06/23 09:01:03;;;;;;;11.70;3.22;;;;;;;;;;4976665;28;20023;-77
2022/06/23 09:04:06;;;;;;;5.50;2.90;;;;;;;;;;4976705;28;20125;-77
2022/06/23 09:06:42;;;;;;;6.23;2.70;;;;;;;;;;4976917;28;20114;-77
2022/06/23 09:09:14;;;;;;;6.05;3.25;;;;;;;;;;4976944;28;20026;-77
2022/06/23 09:11:51;;;;;;;6.88;2.72;;;;;;;;;;4994270;28;20030;-76
2022/06/23 09:14:40;;;;;;;8.05;2.55;;;;;;;;;;4992830;28;20053;-77
2022/06/23 09:17:31;;;;;;;6.65;2.65;;;;;;;;;;4993986;28;20026;-77
2022/06/23 09:20:34;;;;;;;6.22;3.22;;;;;;;;;;4994093;28;20482;-78
2022/06/23 09:23:10;;;;;;;6.57;2.72;;;;;;;;;;4976408;28;20390;-77
2022/06/23 09:25:45;;;;;;;9.88;2.72;;;;;;;;;;4994252;28;20475;-78
2022/06/23 09:28:29;;;;;;;5.57;2.67;;;;;;;;;;4997498;28;20105;-76
2022/06/23 09:31:22;;;;;;;5.50;2.47;;;;;;;;;;4996262;28;20019;-77
2022/06/23 09:34:12;;;;;;;8.13;2.80;;;;;;;;;;4978859;28;20033;-77
2022/06/23 09:37:10;;;;;;;7.55;2.60;;;;;;;;;;4978445;28;20424;-79
2022/06/23 09:40:12;;;;;;;5.10;2.67;;;;;;;;;;4972889;28;20412;-77
2022/06/23 09:43:05;;;;;;;9.27;2.63;;;;;;;;;;4972029;28;20077;-77
2022/06/23 09:45:49;;;;;;;5.40;2.70;;;;;;;;;;4978017;28;20031;-77
2022/06/23 09:48:20;;;;;;;;;;;;;;;;;;4993053;28;20071;-77
2022/06/23 09:51:11;;;;;;;5.68;2.72;;;;;;;;;;4996714;28;19909;-78
2022/06/23 09:53:45;;;;;;;4.80;2.25;;;;;;;;;;4997129;28;20049;-77
2022/06/23 09:56:27;;;;;;;5.85;2.90;;;;;;;;;;4997233;28;20149;-77
2022/06/23 09:59:08;;;;;;;5.35;2.35;;;;;;;;;;4984915;28;20088;-77
2022/06/23 10:01:45;;;;;;;4.93;2.63;;;;;;;;;;4997421;28;20128;-77
2022/06/23 10:04:13;;;;;;;4.55;2.47;;;;;;;;;;4977186;28;20096;-77
2022/06/23 10:07:00;;;;;;;5.10;2.50;;;;;;;;;;4991484;28;20105;-77
2022/06/23 10:09:50;;;;;;;3.88;2.50;;;;;;;;;;4979464;28;20117;-77
2022/06/23 10:12:21;;;;;;;4.03;2.30;;;;;;;;;;4997065;28;20085;-77
2022/06/23 10:14:52;;;;;;;8.40;2.50;;;;;;;;;;4979425;28;20045;-78
2022/06/23 10:18:15;;;;;;;4.15;2.60;;;;;;;;;;4979469;28;20030;-78
2022/06/23 10:20:58;;;;;;;5.47;2.55;;;;;;;;;;4867864;29;20029;-77
2022/06/23 10:23:57;;;;;;;5.13;2.55;;;;;;;;;;4987943;28;20058;-77
2022/06/23 10:26:35;;;;;;;4.82;2.00;;;;;;;;;;4993065;28;20495;-77
2022/06/23 10:29:13;;;;;;;3.78;2.17;;;;;;;;;;4943797;28;20110;-78
2022/06/23 10:31:47;;;;;;;3.42;2.17;;;;;;;;;;4959875;28;20185;-77
2022/06/23 10:34:22;;;;;;;6.88;2.80;;;;;;;;;;4977872;28;20027;-77
2022/06/23 10:37:06;;;;;;;7.53;3.10;;;;;;;;;;4977372;28;20450;-77
2022/06/23 10:40:00;;;;;;;4.95;2.63;;;;;;;;;;4976459;28;20034;-77
2022/06/23 10:42:34;;;;;;;4.35;2.78;;;;;;;;;;4959687;28;20038;-77
2022/06/23 10:45:25;;;;;;;4.45;2.50;;;;;;;;;;4959642;28;20023;-77
2022/06/23 10:48:06;;;;;;;8.18;2.72;;;;;;;;;;4959702;28;20086;-76
2022/06/23 10:50:37;;;;;;;8.55;2.90;;;;;;;;;;4977073;28;20081;-77
2022/06/23 10:53:17;;;;;;;4.82;3.00;;;;;;;;;;4976961;28;20100;-77
2022/06/23 10:56:01;;;;;;;6.78;2.78;;;;;;;;;;4976885;28;20395;-77
2022/06/23 10:58:53;;;;;;;5.25;3.42;;;;;;;;;;4959711;28;20498;-78
2022/06/23 11:01:21;;;;;;;8.68;3.22;;;;;;;;;;4976984;28;20047;-77
2022/06/23 11:03:55;;;;;;;6.72;2.60;;;;;;;;;;4976922;28;20077;-77
2022/06/23 11:07:02;;;;;;;5.57;2.70;;;;;;;;;;4976637;28;20033;-77
2022/06/23 11:09:27;;;;;;;3.63;2.60;;;;;;;;;;4946412;28;20050;-77
2022/06/23 11:12:01;;;;;;;12.65;4.15;;;;;;;;;;4959151;28;20031;-77
2022/06/23 11:15:07;;;;;;;6.90;2.65;;;;;;;;;;4976473;28;20066;-77
2022/06/23 11:18:00;;;;;;;7.75;3.35;;;;;;;;;;4975785;28;20078;-77
2022/06/23 11:20:41;;;;;;;5.97;3.50;;;;;;;;;;4976466;28;20088;-77
2022/06/23 11:23:41;;;;;;;8.63;2.92;;;;;;;;;;4943199;28;20280;-77
2022/06/23 11:26:21;;;;;;;7.07;3.15;;;;;;;;;;4958907;28;20130;-77
2022/06/23 11:28:49;;;;;;;15.30;3.67;;;;;;;;;;4976437;28;20078;-77
2022/06/23 11:31:43;;;;;;;7.80;3.10;;;;;;;;;;4976294;28;20387;-77
2022/06/23 11:34:15;;;;;;;;;;;;;;;;;;4943322;28;20140;-77
2022/06/23 11:37:10;;;;;;;6.60;3.42;;;;;;;;;;4958745;28;19910;-77
2022/06/23 11:39:44;;;;;;;5.55;2.70;;;;;;;;;;4955207;28;20407;-77
2022/06/23 11:42:21;;;;;;;6.20;2.67;;;;;;;;;;4975893;28;20664;-77
2022/06/23 11:45:23;;;;;;;8.00;3.28;;;;;;;;;;4958632;28;20027;-77
2022/06/23 11:48:19;;;;;;;9.07;3.13;;;;;;;;;;4958744;28;20042;-77
2022/06/23 11:51:06;;;;;;;5.40;2.80;;;;;;;;;;4975499;28;20369;-77
2022/06/23 11:54:09;;;;;;;6.00;2.78;;;;;;;;;;4958437;28;20048;-77
2022/06/23 11:56:47;;;;;;;7.05;3.15;;;;;;;;;;4958686;28;20034;-78
2022/06/23 11:59:33;;;;;;;5.00;3.00;;;;;;;;;;4958264;28;20455;-77
2022/06/23 12:01:59;;;;;;;6.38;2.92;;;;;;;;;;4958194;28;20106;-77
2022/06/23 12:04:45;;;;;;;7.82;3.40;;;;;;;;;;4975648;28;20511;-77
2022/06/23 12:07:38;;;;;;;7.25;2.95;;;;;;;;;;4958233;28;20394;-77
2022/06/23 12:10:17;;;;;;;8.20;2.97;;;;;;;;;;4958124;28;20031;-78
2022/06/23 12:12:44;;;;;;;5.95;2.70;;;;;;;;;;4958452;28;20030;-77
2022/06/23 12:15:11;;;;;;;5.07;2.58;;;;;;;;;;4958324;28;20030;-77
2022/06/23 12:17:43;;;;;;;4.78;2.58;;;;;;;;;;4967950;28;20086;-78
2022/06/23 12:20:26;;;;;;;8.13;3.20;;;;;;;;;;4941782;28;20026;-78
2022/06/23 12:23:29;;;;;;;8.27;2.72;;;;;;;;;;4975248;28;20027;-79
2022/06/23 12:26:02;;;;;;;4.68;3.00;;;;;;;;;;4957320;28;20399;-78
2022/06/23 12:28:42;;;;;;;6.25;2.67;;;;;;;;;;4957741;28;20023;-78
2022/06/23 12:31:47;;;;;;;9.20;2.70;;;;;;;;;;4975300;28;20387;-78
2022/06/23 12:34:17;;;;;;;7.82;2.75;;;;;;;;;;4954291;28;20166;-78
2022/06/23 12:37:06;;;;;;;8.63;2.60;;;;;;;;;;4957256;28;20118;-78
2022/06/23 12:40:20;;;;;;;4.40;2.40;;;;;;;;;;4974940;28;20027;-78
2022/06/23 12:42:54;;;;;;;5.53;2.75;;;;;;;;;;4951263;29;20051;-78
2022/06/23 12:45:26;;;;;;;5.28;2.38;;;;;;;;;;4957332;28;20034;-78
2022/06/23 12:48:02;;;;;;;5.30;2.50;;;;;;;;;;4938270;29;20027;-78
2022/06/23 12:50:47;;;;;;;5.15;2.60;;;;;;;;;;4938213;29;20027;-78
2022/06/23 12:53:15;;;;;;;5.35;2.60;;;;;;;;;;4955233;29;20046;-78
2022/06/23 12:55:47;;;;;;;7.20;3.13;;;;;;;;;;4955145;29;20034;-77
2022/06/23 12:58:25;;;;;;;9.75;2.55;;;;;;;;;;4922278;29;20031;-78
2022/06/23 13:00:57;;;;;;;3.80;2.35;;;;;;;;;;4954852;28;20085;-78
2022/06/23 13:03:43;;;;;;;4.53;2.50;;;;;;;;;;4955019;29;20111;-78
2022/06/23 13:06:24;;;;;;;5.07;2.33;;;;;;;;;;4921928;29;20086;-78
2022/06/23 13:09:37;;;;;;;3.47;2.22;;;;;;;;;;4937995;29;20476;-78
2022/06/23 13:12:23;;;;;;;4.35;2.60;;;;;;;;;;4936591;29;20051;-78
2022/06/23 13:15:09;;;;;;;7.68;2.92;;;;;;;;;;4938869;29;20110;-80
2022/06/23 13:17:47;;;;;;;6.47;2.70;;;;;;;;;;4954019;29;20094;-78
2022/06/23 13:20:22;;;;;;;8.00;2.75;;;;;;;;;;4955791;29;20057;-78
2022/06/23 13:22:57;;;;;;;10.07;2.78;;;;;;;;;;4958259;29;20055;-77
2022/06/23 13:25:27;;;;;;;7.00;2.85;;;;;;;;;;4938573;29;20038;-77
2022/06/23 13:27:54;;;;;;;5.38;2.50;;;;;;;;;;4950204;29;20039;-77
2022/06/23 13:30:21;;;;;;;5.75;2.78;;;;;;;;;;4938016;29;20074;-77
2022/06/23 13:33:16;;;;;;;6.72;2.63;;;;;;;;;;4954149;29;20026;-77
2022/06/23 13:35:58;;;;;;;5.20;2.45;;;;;;;;;;4938056;29;20046;-77
2022/06/23 13:38:40;;;;;;;7.80;2.85;;;;;;;;;;4953832;29;20082;-77
2022/06/23 13:41:25;;;;;;;5.45;2.55;;;;;;;;;;4953946;29;20023;-77
2022/06/23 13:43:56;;;;;;;12.82;2.78;;;;;;;;;;4953733;29;20163;-77
2022/06/23 13:46:21;;;;;;;6.45;2.50;;;;;;;;;;4953801;29;20487;-77
2022/06/23 13:49:05;;;;;;;4.63;2.35;;;;;;;;;;4954197;29;20032;-77
2022/06/23 13:51:45;;;;;;;4.40;2.60;;;;;;;;;;4955121;28;20476;-77
2022/06/23 13:54:16;;;;;;;5.38;2.08;;;;;;;;;;4953821;29;20023;-77
2022/06/23 13:57:05;;;;;;;2.95;2.05;;;;;;;;;;4953996;29;20066;-77
2022/06/23 13:59:36;;;;;;;3.83;2.33;;;;;;;;;;4953724;29;20027;-77
2022/06/23 14:02:16;;;;;;;4.22;2.45;;;;;;;;;;4953559;29;20392;-77
2022/06/23 14:04:58;;;;;;;2.97;2.15;;;;;;;;;;4953381;29;20027;-77
2022/06/23 14:07:35;;;;;;;8.00;2.28;;;;;;;;;;4953552;29;20062;-77
2022/06/23 14:10:07;;;;;;;4.88;2.28;;;;;;;;;;4953927;29;20027;-77
2022/06/23 14:12:51;;;;;;;5.18;2.40;;;;;;;;;;4954831;28;20110;-77
2022/06/23 14:15:22;;;;;;;3.88;2.10;;;;;;;;;;4958521;29;20027;-77
2022/06/23 14:17:59;;;;;;;4.35;2.60;;;;;;;;;;4958188;29;20033;-77
2022/06/23 14:21:06;;;;;;;5.38;2.15;;;;;;;;;;4958806;28;20058;-77
2022/06/23 14:23:46;;;;;;;4.63;2.03;;;;;;;;;;4954152;28;20126;-77
2022/06/23 14:26:20;;;;;;;4.45;2.10;;;;;;;;;;4959477;28;20031;-77
2022/06/23 14:29:00;;;;;;;5.00;2.00;;;;;;;;;;4960364;28;20030;-77
2022/06/23 14:31:33;;;;;;;3.42;2.10;;;;;;;;;;4944165;28;20027;-77
2022/06/23 14:34:10;;;;;;;;;;;;;;;;;;4960445;28;20022;-77
2022/06/23 14:36:48;;;;;;;6.78;2.10;;;;;;;;;;4976044;28;19914;-77
2022/06/23 14:39:22;;;;;;;3.85;2.10;;;;;;;;;;4958777;28;20023;-78
2022/06/23 14:42:19;;;;;;;4.22;2.13;;;;;;;;;;4942997;28;20058;-78
2022/06/23 14:45:06;;;;;;;3.97;1.83;;;;;;;;;;4959297;28;20026;-78
2022/06/23 14:47:45;;;;;;;6.28;2.40;;;;;;;;;;4959198;28;20035;-78
2022/06/23 14:50:33;;;;;;;6.30;2.00;;;;;;;;;;4975108;28;20399;-77
2022/06/23 14:53:20;;;;;;;3.03;2.10;;;;;;;;;;4959311;28;20031;-77
2022/06/23 14:56:00;;;;;;;3.83;2.30;;;;;;;;;;4975938;28;20034;-77
2022/06/23 14:58:36;;;;;;;5.70;2.13;;;;;;;;;;4976051;28;20081;-77
2022/06/23 15:01:12;;;;;;;4.82;2.30;;;;;;;;;;4958663;28;20534;-77
2022/06/23 15:03:50;;;;;;;4.93;1.90;;;;;;;;;;4975896;28;20475;-77
2022/06/23 15:06:41;;;;;;;4.13;2.20;;;;;;;;;;4975862;28;20031;-77
2022/06/23 15:09:14;;;;;;;6.13;2.05;;;;;;;;;;4976962;28;20038;-78
2022/06/23 15:11:54;;;;;;;3.90;1.98;;;;;;;;;;4943030;28;20070;-77
2022/06/23 15:14:31;;;;;;;3.88;2.17;;;;;;;;;;4959693;28;20522;-77
2022/06/23 15:17:09;;;;;;;3.17;2.00;;;;;;;;;;4959692;28;20034;-77
2022/06/23 15:19:54;;;;;;;3.78;2.20;;;;;;;;;;4959475;28;20026;-77
2022/06/23 15:25:19;;;;;;;7.78;2.17;;;;;;;;;;4960412;28;20097;-77
2022/06/23 15:27:50;;;;;;;2.85;1.80;;;;;;;;;;4975208;28;20447;-77
2022/06/23 15:30:19;;;;;;;4.90;1.98;;;;;;;;;;4958089;28;20470;-77
2022/06/23 15:33:14;;;;;;;4.25;2.08;;;;;;;;;;4958464;28;20031;-77
2022/06/23 15:36:03;;;;;;;4.97;1.95;;;;;;;;;;4955934;28;20692;-77
2022/06/23 15:38:34;;;;;;;5.18;2.25;;;;;;;;;;4941962;28;20126;-77
2022/06/23 15:41:14;;;;;;;4.22;1.85;;;;;;;;;;4958069;28;20069;-77
2022/06/23 15:44:00;;;;;;;5.65;2.30;;;;;;;;;;4973938;28;20039;-77
2022/06/23 15:46:53;;;;;;;3.70;2.10;;;;;;;;;;4957917;28;20467;-77
2022/06/23 15:49:27;;;;;;;5.50;1.90;;;;;;;;;;4974001;28;20041;-76
2022/06/23 15:52:03;;;;;;;5.32;2.10;;;;;;;;;;4941739;28;20035;-77
2022/06/23 15:54:49;;;;;;;3.60;2.00;;;;;;;;;;4957850;28;20118;-78
2022/06/23 15:57:21;;;;;;;4.10;1.95;;;;;;;;;;4974909;28;20030;-76
2022/06/23 16:00:00;;;;;;;5.55;2.53;;;;;;;;;;4974887;28;20468;-76
2022/06/23 16:02:36;;;;;;;7.03;2.08;;;;;;;;;;4957548;28;20440;-76
2022/06/23 16:05:06;;;;;;;4.38;2.03;;;;;;;;;;4941515;28;20022;-78